Time;durP1;ratioP1;P1;durP2;ratioP2;P2;SDS_P1;SDS_P2;PMS_P1;PMS_P2;Temp;Humidity;BMP_temperature;BMP_pressure;BME280_temperature;BME280_humidity;BME280_pressure;Samples;Min_cycle;Max_cycle;Signal;HPM_P1;HPM_P2
2023/05/17 00:01:51;;;;;;;14.35;1.80;;;8.50;99.90;;;;;;5065529;28;20044;-86
2023/05/17 00:04:16;;;;;;;10.68;2.58;;;8.50;99.90;;;;;;5047707;28;20477;-86
2023/05/17 00:06:43;;;;;;;10.20;1.83;;;8.60;99.90;;;;;;5048381;28;20087;-86
2023/05/17 00:09:08;;;;;;;11.30;1.30;;;8.60;99.90;;;;;;5049668;28;20047;-86
2023/05/17 00:11:34;;;;;;;11.57;1.90;;;8.60;99.90;;;;;;5048722;28;20048;-86
2023/05/17 00:14:00;;;;;;;16.88;1.95;;;8.60;99.90;;;;;;5049486;28;20040;-86
2023/05/17 00:16:26;;;;;;;9.82;1.20;;;8.70;99.90;;;;;;5064411;28;20482;-86
2023/05/17 00:18:52;;;;;;;8.45;1.52;;;8.70;99.90;;;;;;5049133;28;20062;-86
2023/05/17 00:21:17;;;;;;;8.85;1.85;;;9.10;99.90;;;;;;5015156;28;20558;-86
2023/05/17 00:23:43;;;;;;;9.57;1.77;;;8.60;99.90;;;;;;5030758;28;20060;-86
2023/05/17 00:26:09;;;;;;;8.57;1.23;;;8.60;99.90;;;;;;5049236;28;20052;-86
2023/05/17 00:28:34;;;;;;;7.45;1.20;;;9.80;99.90;;;;;;5063916;28;20037;-86
2023/05/17 00:31:00;;;;;;;16.63;1.92;;;8.50;99.90;;;;;;5048798;28;20040;-86
2023/05/17 00:33:26;;;;;;;8.93;1.48;;;8.50;99.90;;;;;;5047358;28;20090;-86
2023/05/17 00:35:52;;;;;;;8.20;1.25;;;9.60;99.90;;;;;;5015576;28;20407;-86
2023/05/17 00:38:17;;;;;;;8.73;1.25;;;9.70;99.90;;;;;;5047959;28;20037;-86
2023/05/17 00:40:43;;;;;;;10.18;1.40;;;8.80;99.90;;;;;;5031575;28;20044;-86
2023/05/17 00:43:10;;;;;;;15.02;3.00;;;9.80;99.90;;;;;;5048334;28;20482;-86
2023/05/17 00:45:35;;;;;;;10.65;1.55;;;8.30;99.90;;;;;;5047295;28;20409;-86
2023/05/17 00:48:01;;;;;;;13.88;1.70;;;9.00;99.90;;;;;;5048488;28;20037;-86
2023/05/17 00:50:27;;;;;;;10.00;1.38;;;8.30;99.90;;;;;;5047874;28;20136;-86
2023/05/17 00:52:54;;;;;;;13.77;1.40;;;8.30;99.90;;;;;;5048613;28;20338;-86
2023/05/17 00:55:20;;;;;;;7.05;1.55;;;8.40;99.90;;;;;;5048395;28;20036;-86
2023/05/17 00:57:45;;;;;;;13.68;1.70;;;8.40;99.90;;;;;;5048181;28;20638;-86
2023/05/17 01:00:12;;;;;;;11.02;1.80;;;8.40;99.90;;;;;;5065479;28;20041;-86
2023/05/17 01:02:37;;;;;;;9.95;1.27;;;8.50;99.90;;;;;;5064323;28;20045;-86
2023/05/17 01:05:04;;;;;;;8.35;1.60;;;9.70;99.90;;;;;;5032232;28;20055;-85
2023/05/17 01:07:29;;;;;;;11.90;1.75;;;8.40;99.90;;;;;;5048068;28;20046;-86
2023/05/17 01:09:56;;;;;;;14.00;1.85;;;9.60;99.90;;;;;;5048800;28;20040;-86
2023/05/17 01:12:34;;;;;;;13.13;1.98;;;8.40;99.90;;;;;;5048134;28;20091;-87
2023/05/17 01:15:09;;;;;;;8.90;1.15;;;8.40;99.90;;;;;;5064738;28;20037;-87
2023/05/17 01:18:10;;;;;;;11.63;2.30;;;8.40;99.90;;;;;;5048571;28;20090;-86
2023/05/17 01:20:47;;;;;;;9.38;1.15;;;8.40;99.90;;;;;;5047725;28;20056;-86
2023/05/17 01:23:44;;;;;;;10.38;1.50;;;8.40;99.90;;;;;;5048597;28;20052;-86
2023/05/17 01:26:20;;;;;;;8.82;1.65;;;8.40;99.90;;;;;;5049335;28;20048;-86
2023/05/17 01:28:50;;;;;;;7.90;1.10;;;8.50;99.90;;;;;;5047547;28;20862;-86
2023/05/17 01:31:17;;;;;;;9.57;0.95;;;8.50;99.90;;;;;;5048670;28;20052;-87
2023/05/17 01:33:43;;;;;;;8.25;1.25;;;8.60;99.90;;;;;;5064493;28;20071;-86
2023/05/17 01:36:08;;;;;;;6.65;1.10;;;8.60;99.90;;;;;;5047999;28;20114;-86
2023/05/17 01:38:34;;;;;;;13.35;1.08;;;8.60;99.90;;;;;;5032097;28;20048;-86
2023/05/17 01:41:15;;;;;;;7.80;1.30;;;8.60;99.90;;;;;;5031444;28;20048;-86
2023/05/17 01:43:49;;;;;;;7.43;1.05;;;8.70;99.90;;;;;;5048242;28;20508;-86
2023/05/17 01:46:26;;;;;;;4.25;0.50;;;9.50;99.90;;;;;;5047908;28;20041;-86
2023/05/17 01:49:04;;;;;;;8.15;1.10;;;9.80;99.90;;;;;;5048017;28;20048;-86
2023/05/17 01:51:32;;;;;;;7.82;1.10;;;8.70;99.90;;;;;;5064979;28;20099;-86
2023/05/17 01:54:04;;;;;;;4.65;0.88;;;9.50;99.90;;;;;;5064253;28;20045;-87
2023/05/17 01:56:35;;;;;;;5.57;0.75;;;9.80;99.90;;;;;;5048130;28;20044;-86
2023/05/17 01:59:04;;;;;;;9.73;1.02;;;9.90;99.90;;;;;;5047746;28;20055;-86
2023/05/17 02:01:31;;;;;;;7.05;1.00;;;8.50;99.90;;;;;;5065001;28;20040;-86
2023/05/17 02:03:57;;;;;;;7.40;0.55;;;8.80;99.90;;;;;;5047787;28;20044;-86
2023/05/17 02:06:23;;;;;;;12.48;1.25;;;9.90;99.90;;;;;;5064002;28;20190;-86
2023/05/17 02:08:48;;;;;;;10.75;0.88;;;9.00;99.90;;;;;;5048072;28;20156;-86
2023/05/17 02:11:14;;;;;;;6.13;1.23;;;8.30;99.90;;;;;;5030662;28;20036;-86
2023/05/17 02:13:40;;;;;;;8.85;1.33;;;9.40;99.90;;;;;;5032098;28;20048;-86
2023/05/17 02:16:05;;;;;;;7.95;0.68;;;9.00;99.90;;;;;;5047159;28;20486;-86
2023/05/17 02:18:33;;;;;;;7.63;1.05;;;8.20;99.90;;;;;;5048586;28;20509;-86
2023/05/17 02:20:59;;;;;;;9.07;0.85;;;8.20;99.90;;;;;;5030554;28;20033;-85
2023/05/17 02:23:25;;;;;;;9.30;0.98;;;8.20;99.90;;;;;;5063183;28;20098;-86
2023/05/17 02:25:51;;;;;;;8.07;1.33;;;8.20;99.90;;;;;;5031274;28;20401;-86
2023/05/17 02:28:17;;;;;;;5.70;0.70;;;8.20;99.90;;;;;;5031891;28;20063;-86
2023/05/17 02:30:43;;;;;;;7.40;0.68;;;8.20;99.90;;;;;;5034539;28;20059;-86
2023/05/17 02:33:09;;;;;;;6.03;1.05;;;8.40;99.90;;;;;;5066987;28;20040;-86
2023/05/17 02:35:34;;;;;;;11.43;0.70;;;8.20;99.90;;;;;;5068469;28;20101;-86
2023/05/17 02:38:01;;;;;;;5.35;0.60;;;8.20;99.90;;;;;;5050716;28;20040;-86
2023/05/17 02:40:26;;;;;;;5.80;1.15;;;8.80;99.90;;;;;;5066864;28;20044;-86
2023/05/17 02:42:52;;;;;;;9.63;0.85;;;8.10;99.90;;;;;;5051323;28;20139;-86
2023/05/17 02:45:18;;;;;;;5.35;0.82;;;8.10;99.90;;;;;;5033307;28;20051;-86
2023/05/17 02:47:43;;;;;;;6.43;1.20;;;8.10;99.90;;;;;;5051198;28;20460;-86
2023/05/17 02:50:09;;;;;;;5.88;0.85;;;8.10;99.90;;;;;;5066835;28;20044;-86
2023/05/17 02:52:35;;;;;;;11.10;1.50;;;8.40;99.90;;;;;;5051289;28;20497;-86
2023/05/17 02:55:01;;;;;;;7.70;0.93;;;8.10;99.90;;;;;;5066935;28;20048;-86
2023/05/17 02:57:27;;;;;;;5.95;0.73;;;8.00;99.90;;;;;;5034611;28;20083;-86
2023/05/17 02:59:52;;;;;;;8.95;0.82;;;8.00;99.90;;;;;;5034640;28;20036;-86
2023/05/17 03:02:18;;;;;;;4.85;0.60;;;9.10;99.90;;;;;;5035267;28;20048;-86
2023/05/17 03:04:44;;;;;;;7.75;1.20;;;8.00;99.90;;;;;;5035369;28;20044;-86
2023/05/17 03:07:10;;;;;;;5.15;0.95;;;8.00;99.90;;;;;;5066872;28;20051;-85
2023/05/17 03:09:36;;;;;;;9.75;0.90;;;8.00;99.90;;;;;;5068668;28;20036;-86
2023/05/17 03:12:02;;;;;;;10.77;0.88;;;8.80;99.90;;;;;;5034049;28;20567;-86
2023/05/17 03:14:28;;;;;;;8.70;0.88;;;8.00;99.90;;;;;;5051149;28;20421;-86
2023/05/17 03:16:53;;;;;;;11.10;0.90;;;8.00;99.90;;;;;;5051076;28;20049;-86
2023/05/17 03:19:19;;;;;;;6.80;1.00;;;9.20;99.90;;;;;;5068156;28;20041;-85
2023/05/17 03:21:45;;;;;;;4.72;0.95;;;9.30;99.90;;;;;;5052853;28;20052;-87
2023/05/17 03:24:10;;;;;;;8.45;0.68;;;9.30;99.90;;;;;;5051098;28;20057;-86
2023/05/17 03:26:36;;;;;;;9.50;0.88;;;8.10;99.90;;;;;;5034408;28;20049;-86
2023/05/17 03:29:02;;;;;;;5.00;0.65;;;9.20;99.90;;;;;;5050357;28;20049;-86
2023/05/17 03:31:28;;;;;;;5.80;0.57;;;8.10;99.90;;;;;;5021891;28;20047;-86
2023/05/17 03:33:54;;;;;;;5.57;0.73;;;8.10;99.90;;;;;;5057819;28;20044;-86
2023/05/17 03:36:19;;;;;;;12.13;1.20;;;9.60;99.90;;;;;;5074511;28;20136;-86
2023/05/17 03:38:45;;;;;;;8.55;0.73;;;8.10;99.90;;;;;;5044044;28;20051;-86
2023/05/17 03:41:11;;;;;;;5.13;0.70;;;8.40;99.90;;;;;;5026949;28;20210;-87
2023/05/17 03:43:37;;;;;;;4.80;0.52;;;8.20;99.90;;;;;;5060972;28;20048;-86
2023/05/17 03:46:03;;;;;;;11.73;1.20;;;8.30;99.90;;;;;;5075046;28;20055;-85
2023/05/17 03:48:28;;;;;;;4.10;0.70;;;8.30;99.90;;;;;;5075086;28;20037;-86
2023/05/17 03:50:54;;;;;;;2.17;0.73;;;8.30;99.90;;;;;;5071775;28;20044;-86
2023/05/17 03:53:20;;;;;;;13.18;1.05;;;9.00;99.90;;;;;;5035561;28;20493;-86
2023/05/17 03:55:46;;;;;;;3.38;0.52;;;8.40;99.90;;;;;;5069139;28;20044;-87
2023/05/17 03:58:12;;;;;;;2.78;0.73;;;8.20;99.90;;;;;;5050548;28;20554;-86
2023/05/17 04:00:37;;;;;;;6.85;0.60;;;8.20;99.90;;;;;;5068487;28;20117;-85
2023/05/17 04:03:03;;;;;;;8.00;1.30;;;8.20;99.90;;;;;;5049709;28;20051;-87
2023/05/17 04:05:29;;;;;;;6.38;0.52;;;8.20;99.90;;;;;;5034166;28;20104;-86
2023/05/17 04:07:55;;;;;;;7.75;0.68;;;9.50;99.90;;;;;;5049758;28;20109;-85
2023/05/17 04:10:21;;;;;;;6.18;0.82;;;9.20;99.90;;;;;;5066308;28;20048;-86
2023/05/17 04:12:46;;;;;;;4.75;1.00;;;8.30;99.90;;;;;;5066852;28;20051;-86
2023/05/17 04:15:12;;;;;;;5.22;0.60;;;8.60;99.90;;;;;;5032670;28;20052;-86
2023/05/17 04:17:38;;;;;;;6.18;0.50;;;8.30;99.90;;;;;;5017573;28;20045;-86
2023/05/17 04:20:05;;;;;;;6.18;0.95;;;8.30;99.90;;;;;;5049409;28;20044;-86
2023/05/17 04:22:31;;;;;;;4.32;0.57;;;7.00;99.90;;;;;;5035206;28;20045;-85
2023/05/17 04:24:57;;;;;;;5.82;0.47;;;8.30;99.90;;;;;;5049506;28;20494;-83
2023/05/17 04:27:23;;;;;;;11.00;0.70;;;8.30;99.90;;;;;;5049565;28;20068;-83
2023/05/17 04:29:49;;;;;;;12.35;0.85;;;8.30;99.90;;;;;;5034077;28;20080;-86
2023/05/17 04:32:15;;;;;;;8.48;0.47;;;8.30;99.90;;;;;;5032825;28;20050;-86
2023/05/17 04:34:42;;;;;;;5.05;0.57;;;8.80;99.90;;;;;;5069279;28;20450;-86
2023/05/17 04:37:07;;;;;;;4.00;0.60;;;8.30;99.90;;;;;;5050584;28;20094;-87
2023/05/17 04:39:33;;;;;;;4.32;0.70;;;9.40;99.90;;;;;;5034723;28;20044;-84
2023/05/17 04:41:59;;;;;;;6.07;0.93;;;9.20;99.90;;;;;;5032436;28;20052;-85
2023/05/17 04:44:26;;;;;;;6.50;0.73;;;7.00;99.90;;;;;;5065931;28;20044;-85
2023/05/17 04:46:52;;;;;;;6.45;0.63;;;8.40;99.90;;;;;;5066416;28;20045;-86
2023/05/17 04:49:18;;;;;;;6.10;0.60;;;8.50;99.90;;;;;;5049610;28;20473;-83
2023/05/17 04:51:43;;;;;;;5.95;0.57;;;9.80;99.90;;;;;;5032558;28;20078;-85
2023/05/17 04:54:09;;;;;;;11.90;1.08;;;9.80;99.90;;;;;;5031512;28;20044;-84
2023/05/17 04:56:36;;;;;;;2.70;0.52;;;9.40;99.90;;;;;;5032337;28;20045;-83
2023/05/17 04:59:02;;;;;;;4.93;0.70;;;9.60;99.90;;;;;;5048189;28;20241;-84
2023/05/17 05:01:29;;;;;;;4.32;0.68;;;8.70;99.90;;;;;;5032627;28;20044;-84
2023/05/17 05:03:56;;;;;;;4.20;0.63;;;8.70;99.90;;;;;;5048961;28;20038;-84
2023/05/17 05:06:22;;;;;;;2.33;0.30;;;8.80;99.90;;;;;;5064779;28;20049;-83
2023/05/17 05:08:48;;;;;;;5.97;0.50;;;8.80;99.90;;;;;;5015915;28;20398;-83
2023/05/17 05:11:13;;;;;;;1.77;0.40;;;9.40;99.90;;;;;;5064000;28;20051;-82
2023/05/17 05:13:40;;;;;;;7.03;0.82;;;9.40;99.90;;;;;;5048146;28;20048;-83
2023/05/17 05:16:06;;;;;;;8.10;0.60;;;8.90;99.90;;;;;;5047051;28;20040;-84
2023/05/17 05:18:32;;;;;;;3.28;0.60;;;8.90;99.90;;;;;;5031462;28;20051;-86
2023/05/17 05:20:58;;;;;;;8.50;1.13;;;10.10;99.90;;;;;;5064500;28;20041;-84
2023/05/17 05:23:24;;;;;;;4.43;0.40;;;10.10;99.90;;;;;;5046977;28;20044;-82
2023/05/17 05:25:49;;;;;;;3.25;0.70;;;9.00;99.90;;;;;;5031828;28;20048;-86
2023/05/17 05:28:15;;;;;;;4.78;0.90;;;9.00;99.90;;;;;;5046870;28;20041;-86
2023/05/17 05:30:41;;;;;;;6.20;1.33;;;9.00;99.90;;;;;;5015071;28;20071;-86
2023/05/17 05:33:07;;;;;;;11.00;1.30;;;9.00;99.90;;;;;;5046777;28;20094;-84
2023/05/17 05:35:32;;;;;;;8.75;1.13;;;9.00;99.90;;;;;;5064412;28;20087;-86
2023/05/17 05:37:58;;;;;;;10.40;0.85;;;9.00;99.90;;;;;;5047213;28;20080;-85
2023/05/17 05:40:24;;;;;;;8.00;1.08;;;7.90;99.90;;;;;;5063871;28;20063;-86
2023/05/17 05:42:51;;;;;;;7.53;0.82;;;9.50;99.90;;;;;;5032071;28;20652;-86
2023/05/17 05:45:17;;;;;;;7.20;1.23;;;9.00;99.90;;;;;;5063236;28;20310;-85
2023/05/17 05:47:43;;;;;;;6.65;1.02;;;9.00;99.90;;;;;;5031838;28;20460;-86
2023/05/17 05:50:10;;;;;;;9.63;1.00;;;9.10;99.90;;;;;;5064504;28;20373;-86
2023/05/17 05:52:35;;;;;;;5.82;0.80;;;10.10;99.90;;;;;;5066372;28;20076;-85
2023/05/17 05:55:01;;;;;;;7.32;0.90;;;9.30;99.90;;;;;;5048330;28;20063;-84
2023/05/17 05:57:27;;;;;;;6.85;1.10;;;9.60;99.90;;;;;;5030889;28;20501;-83
2023/05/17 05:59:53;;;;;;;7.80;1.10;;;10.70;99.90;;;;;;5048824;28;20049;-88
2023/05/17 06:02:19;;;;;;;9.15;0.95;;;9.70;99.90;;;;;;5063611;28;20112;-84
2023/05/17 06:04:47;;;;;;;9.20;1.20;;;10.20;99.90;;;;;;5051900;28;20051;-82
2023/05/17 06:07:14;;;;;;;9.18;1.00;;;10.00;99.90;;;;;;5050914;28;20467;-81
2023/05/17 06:09:40;;;;;;;8.93;0.85;;;9.90;99.90;;;;;;5068688;28;20048;-83
2023/05/17 06:12:09;;;;;;;7.78;0.82;;;9.90;99.90;;;;;;5067915;28;20079;-84
2023/05/17 06:14:36;;;;;;;7.75;1.15;;;9.90;99.90;;;;;;5051231;28;20052;-83
2023/05/17 06:17:02;;;;;;;7.65;1.10;;;10.00;99.90;;;;;;5068641;28;20052;-84
2023/05/17 06:19:27;;;;;;;7.65;1.38;;;11.20;99.90;;;;;;5033651;28;20048;-84
2023/05/17 06:21:53;;;;;;;5.30;1.35;;;9.90;99.90;;;;;;5051665;28;20131;-84
2023/05/17 06:24:20;;;;;;;7.95;1.23;;;9.90;99.90;;;;;;5066849;28;20501;-84
2023/05/17 06:26:46;;;;;;;12.70;1.30;;;9.80;99.90;;;;;;5034580;28;20041;-84
2023/05/17 06:29:12;;;;;;;7.15;1.23;;;9.80;99.90;;;;;;5050875;28;20044;-85
2023/05/17 06:31:37;;;;;;;8.00;1.25;;;10.50;99.90;;;;;;5034440;28;20047;-85
2023/05/17 06:34:03;;;;;;;7.55;1.48;;;11.00;99.90;;;;;;5051859;28;20056;-85
2023/05/17 06:36:29;;;;;;;11.23;1.70;;;9.80;99.90;;;;;;5050090;28;20045;-85
2023/05/17 06:38:55;;;;;;;7.35;1.35;;;9.80;99.90;;;;;;5051638;28;20041;-85
2023/05/17 06:41:21;;;;;;;10.52;1.88;;;9.80;99.90;;;;;;5050616;28;20135;-85
2023/05/17 06:43:46;;;;;;;12.43;1.40;;;9.90;99.90;;;;;;5051900;28;20506;-84
2023/05/17 06:46:12;;;;;;;13.07;1.38;;;9.90;99.90;;;;;;5067032;28;20055;-85
2023/05/17 06:48:38;;;;;;;8.02;1.38;;;10.00;99.90;;;;;;5050552;28;20052;-84
2023/05/17 06:51:03;;;;;;;7.88;0.90;;;11.00;99.90;;;;;;5051268;28;20040;-84
2023/05/17 06:53:29;;;;;;;15.80;1.58;;;10.10;99.90;;;;;;5048733;28;20048;-83
2023/05/17 06:55:55;;;;;;;6.05;0.70;;;10.80;99.90;;;;;;5051629;28;20076;-85
2023/05/17 06:58:21;;;;;;;6.97;0.77;;;10.30;99.90;;;;;;5048615;28;20432;-83
2023/05/17 07:00:47;;;;;;;4.22;1.02;;;10.30;99.90;;;;;;5050499;28;20052;-84
2023/05/17 07:03:12;;;;;;;13.10;1.73;;;10.40;99.90;;;;;;5032361;28;20135;-84
2023/05/17 07:05:38;;;;;;;9.63;0.93;;;10.60;99.90;;;;;;5066434;28;20155;-83
2023/05/17 07:08:04;;;;;;;8.55;0.82;;;10.90;99.90;;;;;;5067078;28;20360;-84
2023/05/17 07:10:30;;;;;;;7.50;1.02;;;9.60;99.90;;;;;;5048369;28;20091;-85
2023/05/17 07:12:56;;;;;;;7.15;1.00;;;10.90;99.90;;;;;;5067013;28;20083;-84
2023/05/17 07:15:22;;;;;;;7.13;1.17;;;11.00;99.90;;;;;;5047646;28;20414;-84
2023/05/17 07:17:47;;;;;;;7.72;1.17;;;11.10;99.90;;;;;;5049384;28;20565;-83
2023/05/17 07:20:13;;;;;;;7.32;1.17;;;9.90;99.90;;;;;;5047880;28;20110;-83
2023/05/17 07:22:39;;;;;;;8.35;0.93;;;11.10;99.90;;;;;;5032863;28;20075;-84
2023/05/17 07:25:06;;;;;;;14.60;1.25;;;11.10;99.90;;;;;;5049015;28;20509;-84
2023/05/17 07:27:32;;;;;;;11.60;1.15;;;11.20;99.90;;;;;;5031526;28;20047;-83
2023/05/17 07:29:57;;;;;;;5.13;0.75;;;11.20;99.90;;;;;;5049464;28;20041;-82
2023/05/17 07:32:23;;;;;;;7.53;0.82;;;11.20;99.90;;;;;;5065478;28;20044;-81
2023/05/17 07:34:50;;;;;;;15.35;1.23;;;11.20;99.90;;;;;;5065683;28;20470;-81
2023/05/17 07:37:16;;;;;;;6.65;0.90;;;11.10;99.90;;;;;;5047897;28;20040;-82
2023/05/17 07:39:42;;;;;;;7.93;1.27;;;11.20;99.90;;;;;;5016022;28;20036;-86
2023/05/17 07:42:07;;;;;;;6.07;1.10;;;11.30;99.90;;;;;;5048910;28;20087;-84
2023/05/17 07:44:33;;;;;;;11.55;1.13;;;11.40;99.90;;;;;;5031209;28;20055;-84
2023/05/17 07:46:59;;;;;;;6.78;1.77;;;11.50;99.90;;;;;;5032925;28;20080;-83
2023/05/17 07:49:26;;;;;;;8.38;1.77;;;11.50;99.90;;;;;;5064102;28;20044;-83
2023/05/17 07:51:52;;;;;;;4.68;0.82;;;11.40;99.90;;;;;;5049713;28;20070;-81
2023/05/17 07:54:27;;;;;;;11.35;1.25;;;11.60;99.90;;;;;;5064241;28;20458;-84
2023/05/17 07:56:54;;;;;;;9.77;0.80;;;11.60;99.90;;;;;;5049251;28;20063;-83
2023/05/17 07:59:20;;;;;;;9.32;0.70;;;11.60;99.90;;;;;;5032507;28;20040;-82
2023/05/17 08:01:46;;;;;;;7.22;1.30;;;11.60;99.90;;;;;;5047765;28;20044;-83
2023/05/17 08:04:13;;;;;;;8.02;0.88;;;11.70;99.90;;;;;;5033080;28;20067;-82
2023/05/17 08:06:40;;;;;;;3.63;0.80;;;11.70;99.90;;;;;;5063860;28;20076;-84
2023/05/17 08:09:06;;;;;;;9.63;1.33;;;12.80;99.90;;;;;;5066053;28;20040;-82
2023/05/17 08:11:33;;;;;;;7.95;0.63;;;11.80;99.90;;;;;;5064065;28;20047;-82
2023/05/17 08:13:59;;;;;;;5.35;0.65;;;11.70;99.90;;;;;;5049222;28;20055;-80
2023/05/17 08:16:25;;;;;;;7.50;1.27;;;11.40;99.90;;;;;;5065071;28;20048;-82
2023/05/17 08:18:51;;;;;;;5.38;0.90;;;11.80;99.90;;;;;;5065802;28;20420;-82
2023/05/17 08:21:17;;;;;;;9.20;1.15;;;11.90;99.90;;;;;;5068314;28;20048;-83
2023/05/17 08:23:43;;;;;;;7.13;0.60;;;12.00;99.90;;;;;;5046739;28;20067;-83
2023/05/17 08:26:08;;;;;;;7.50;0.80;;;12.00;99.90;;;;;;5031347;28;20063;-84
2023/05/17 08:28:34;;;;;;;5.70;0.80;;;12.00;99.90;;;;;;5046589;28;20044;-84
2023/05/17 08:31:00;;;;;;;12.82;0.98;;;12.00;99.90;;;;;;5065618;28;20110;-84
2023/05/17 08:33:27;;;;;;;4.10;1.15;;;12.10;99.90;;;;;;5030975;28;20087;-84
2023/05/17 08:35:54;;;;;;;4.70;0.55;;;12.20;99.90;;;;;;5014890;28;20049;-84
2023/05/17 08:38:20;;;;;;;6.13;0.40;;;12.30;99.90;;;;;;5048888;28;20063;-84
2023/05/17 08:40:56;;;;;;;9.25;0.93;;;12.30;99.90;;;;;;5046834;28;20496;-83
2023/05/17 08:43:23;;;;;;;8.52;0.70;;;12.40;99.90;;;;;;5031751;28;20045;-83
2023/05/17 08:45:53;;;;;;;4.53;0.80;;;12.70;99.90;;;;;;5029618;28;20424;-83
2023/05/17 08:48:19;;;;;;;2.45;0.68;;;13.10;99.90;;;;;;5048504;28;20048;-82
2023/05/17 08:50:49;;;;;;;3.58;0.75;;;13.30;99.90;;;;;;5048328;28;20072;-82
2023/05/17 08:53:16;;;;;;;4.35;0.40;;;13.40;99.90;;;;;;5047429;28;20055;-82
2023/05/17 08:55:47;;;;;;;9.00;1.27;;;13.30;99.90;;;;;;5048691;28;20083;-83
2023/05/17 08:58:15;;;;;;;9.10;1.05;;;12.80;99.90;;;;;;5048749;28;20092;-84
2023/05/17 09:00:41;;;;;;;10.35;1.05;;;13.30;99.90;;;;;;5066439;28;20040;-83
2023/05/17 09:03:08;;;;;;;11.48;1.33;;;13.50;99.90;;;;;;5046880;28;20036;-84
2023/05/17 09:05:35;;;;;;;6.53;0.85;;;13.80;99.90;;;;;;5031536;28;20052;-83
2023/05/17 09:08:01;;;;;;;10.55;1.25;;;13.90;99.90;;;;;;5064863;28;20149;-83
2023/05/17 09:10:27;;;;;;;8.10;0.77;;;13.90;99.90;;;;;;5063607;28;20040;-84
2023/05/17 09:12:53;;;;;;;4.55;0.88;;;13.70;99.90;;;;;;5066204;28;20185;-83
2023/05/17 09:15:22;;;;;;;10.20;1.05;;;13.50;99.90;;;;;;5013298;28;20040;-83
2023/05/17 09:17:52;;;;;;;5.55;0.88;;;13.30;99.90;;;;;;5065824;28;20139;-82
2023/05/17 09:20:23;;;;;;;4.57;0.75;;;13.30;99.80;;;;;;5047431;28;20045;-84
2023/05/17 09:22:50;;;;;;;3.25;0.47;;;13.20;99.90;;;;;;5015473;28;20549;-84
2023/05/17 09:25:25;;;;;;;4.35;0.90;;;13.10;99.90;;;;;;5048335;28;20139;-83
2023/05/17 09:27:52;;;;;;;5.70;0.95;;;13.10;99.80;;;;;;5047208;28;20482;-84
2023/05/17 09:30:18;;;;;;;4.35;0.63;;;13.10;99.70;;;;;;5065661;28;20090;-84
2023/05/17 09:32:47;;;;;;;4.03;0.88;;;13.20;99.70;;;;;;5030393;28;20041;-84
2023/05/17 09:35:13;;;;;;;6.15;0.75;;;13.50;99.90;;;;;;5048955;28;20055;-84
2023/05/17 09:37:38;;;;;;;5.55;0.90;;;13.60;99.50;;;;;;5049757;28;20040;-84
2023/05/17 09:40:06;;;;;;;3.88;0.80;;;13.50;99.50;;;;;;5069048;28;20056;-84
2023/05/17 09:42:38;;;;;;;5.78;0.90;;;13.50;99.70;;;;;;5052629;28;20052;-84
2023/05/17 09:45:04;;;;;;;3.75;0.60;;;13.50;99.40;;;;;;5067488;28;20051;-85
2023/05/17 09:47:30;;;;;;;3.80;0.60;;;13.60;99.50;;;;;;5070248;28;20040;-83
2023/05/17 09:49:59;;;;;;;5.57;0.75;;;13.80;99.30;;;;;;5052117;28;20041;-83
2023/05/17 09:52:30;;;;;;;3.25;0.60;;;13.80;98.80;;;;;;5052740;28;20048;-85
2023/05/17 09:55:00;;;;;;;7.28;0.50;;;13.90;98.40;;;;;;5035045;28;20048;-85
2023/05/17 09:57:27;;;;;;;5.82;1.00;;;13.80;97.50;;;;;;5051141;28;20094;-85
2023/05/17 09:59:56;;;;;;;5.82;0.52;;;13.90;97.90;;;;;;5069438;28;20037;-85
2023/05/17 10:02:30;;;;;;;3.50;0.93;;;14.00;97.80;;;;;;5066512;28;20409;-85
2023/05/17 10:04:57;;;;;;;4.18;0.77;;;14.00;97.70;;;;;;5068612;28;20127;-85
2023/05/17 10:07:24;;;;;;;4.95;0.93;;;13.90;97.80;;;;;;5066514;28;20053;-85
2023/05/17 10:09:52;;;;;;;5.63;0.68;;;13.90;97.90;;;;;;5068656;28;20690;-85
2023/05/17 10:12:21;;;;;;;5.40;0.43;;;13.90;98.00;;;;;;5051136;28;20047;-85
2023/05/17 10:14:48;;;;;;;3.90;0.50;;;13.90;97.90;;;;;;5050599;28;20127;-85
2023/05/17 10:17:15;;;;;;;6.72;0.68;;;13.90;97.70;;;;;;5052411;28;20091;-86
2023/05/17 10:19:41;;;;;;;3.10;0.63;;;13.90;97.60;;;;;;5067077;28;20961;-87
2023/05/17 10:22:08;;;;;;;4.90;0.57;;;13.70;97.50;;;;;;5019513;28;20370;-87
2023/05/17 10:24:36;;;;;;;6.35;0.60;;;13.50;96.90;;;;;;5049571;28;20060;-86
2023/05/17 10:27:01;;;;;;;1.88;0.55;;;13.50;97.10;;;;;;5051033;28;20032;-86
2023/05/17 10:29:30;;;;;;;6.50;1.25;;;13.60;97.00;;;;;;5050504;28;20036;-86
2023/05/17 10:31:57;;;;;;;5.35;0.77;;;13.60;96.50;;;;;;5049961;28;20051;-86
2023/05/17 10:34:26;;;;;;;3.05;0.50;;;13.50;96.50;;;;;;5068744;28;20051;-87
2023/05/17 10:36:52;;;;;;;6.88;0.70;;;13.50;97.00;;;;;;5065911;28;20041;-86
2023/05/17 10:39:20;;;;;;;5.70;0.60;;;13.50;97.30;;;;;;5052331;28;20070;-86
2023/05/17 10:41:51;;;;;;;7.57;1.20;;;13.60;97.20;;;;;;5050084;28;20476;-86
2023/05/17 10:44:17;;;;;;;6.95;1.08;;;13.60;96.80;;;;;;5067662;28;20080;-85
2023/05/17 10:46:58;;;;;;;8.82;0.73;;;13.60;97.20;;;;;;5051273;28;20045;-85
2023/05/17 10:49:31;;;;;;;7.63;0.90;;;13.80;97.30;;;;;;5048998;28;20527;-86
2023/05/17 10:51:58;;;;;;;6.93;0.90;;;13.80;96.80;;;;;;5052094;28;20397;-86
2023/05/17 10:54:35;;;;;;;6.13;1.40;;;13.60;97.00;;;;;;5049658;28;20576;-87
2023/05/17 10:57:04;;;;;;;4.40;0.80;;;13.50;97.10;;;;;;5067512;28;20055;-87
2023/05/17 10:59:31;;;;;;;6.25;1.20;;;13.70;97.20;;;;;;5050599;28;20037;-87
2023/05/17 11:02:08;;;;;;;3.85;0.55;;;13.90;97.00;;;;;;5033555;28;20075;-89
2023/05/17 11:04:37;;;;;;;3.58;0.85;;;14.00;96.50;;;;;;5068456;28;20045;-86
2023/05/17 11:09:54;;;;;;;2.95;0.85;;;13.80;96.00;;;;;;5067818;28;20045;-88
2023/05/17 11:12:52;;;;;;;4.70;1.00;;;13.80;96.40;;;;;;5035255;28;20105;-87
2023/05/17 11:15:23;;;;;;;3.38;0.50;;;13.80;95.60;;;;;;5066237;28;20427;-86
2023/05/17 11:17:52;;;;;;;5.75;0.68;;;14.10;96.40;;;;;;5052080;28;20088;-84
2023/05/17 11:20:24;;;;;;;6.43;1.15;;;14.50;96.00;;;;;;5049369;28;20029;-83
2023/05/17 11:23:15;;;;;;;2.30;0.50;;;14.70;95.50;;;;;;5050816;28;20538;-83
2023/05/17 11:25:40;;;;;;;10.15;1.25;;;14.70;95.10;;;;;;5050462;28;20095;-82
2023/05/17 11:28:08;;;;;;;6.25;0.98;;;14.50;95.50;;;;;;5049067;28;20080;-82
2023/05/17 11:30:38;;;;;;;19.33;2.00;;;14.50;95.50;;;;;;5067424;28;20049;-85
2023/05/17 11:33:06;;;;;;;8.98;1.30;;;14.80;95.70;;;;;;5032509;28;20041;-84
2023/05/17 11:35:37;;;;;;;6.63;1.38;;;14.70;95.10;;;;;;5069015;28;20092;-84
2023/05/17 11:38:26;;;;;;;6.63;1.30;;;14.40;94.50;;;;;;5050109;28;20580;-84
2023/05/17 11:40:53;;;;;;;21.17;2.55;;;14.10;94.80;;;;;;5032742;28;20048;-85
2023/05/17 11:43:22;;;;;;;6.32;1.10;;;14.10;95.30;;;;;;5050523;28;20062;-86
2023/05/17 11:45:49;;;;;;;4.68;1.10;;;14.20;94.80;;;;;;5048004;28;20044;-86
2023/05/17 11:48:18;;;;;;;6.97;0.77;;;14.30;94.80;;;;;;5050490;28;20089;-85
2023/05/17 11:50:45;;;;;;;14.52;1.23;;;14.30;94.40;;;;;;5050309;28;20044;-87
2023/05/17 11:53:12;;;;;;;5.75;0.95;;;14.20;93.80;;;;;;5067289;28;20037;-86
2023/05/17 11:55:43;;;;;;;5.95;1.33;;;14.20;94.10;;;;;;5051382;28;20051;-84
2023/05/17 11:58:11;;;;;;;5.97;0.90;;;14.40;93.40;;;;;;5049208;28;20484;-84
2023/05/17 12:00:40;;;;;;;4.00;0.80;;;14.90;93.40;;;;;;5050007;28;20058;-85
2023/05/17 12:03:27;;;;;;;6.45;0.77;;;15.20;93.40;;;;;;5032619;28;20190;-84
2023/05/17 12:06:11;;;;;;;6.47;1.10;;;15.40;92.50;;;;;;5049488;28;20048;-85
2023/05/17 12:08:39;;;;;;;5.85;1.27;;;15.40;92.10;;;;;;5049737;28;20374;-85
2023/05/17 12:11:06;;;;;;;4.43;0.80;;;15.30;93.20;;;;;;5048325;28;20045;-86
2023/05/17 12:13:34;;;;;;;6.80;0.88;;;15.40;92.80;;;;;;5049574;28;20083;-86
2023/05/17 12:16:04;;;;;;;3.65;0.80;;;15.40;92.50;;;;;;5047882;28;20051;-85
2023/05/17 12:18:35;;;;;;;7.57;1.15;;;15.30;92.80;;;;;;5066911;28;20075;-85
2023/05/17 12:21:01;;;;;;;5.90;0.93;;;15.20;92.60;;;;;;5032245;28;20056;-87
2023/05/17 12:23:35;;;;;;;4.28;0.77;;;15.20;92.70;;;;;;5047963;28;20037;-85
2023/05/17 12:26:03;;;;;;;5.40;0.82;;;15.30;91.60;;;;;;5065128;28;20037;-86
2023/05/17 12:28:28;;;;;;;2.40;0.80;;;15.40;91.70;;;;;;5064351;28;20424;-84
2023/05/17 12:31:01;;;;;;;4.22;0.77;;;15.40;91.70;;;;;;5049367;28;20044;-83
2023/05/17 12:33:39;;;;;;;6.35;0.85;;;15.30;91.60;;;;;;5064250;28;20051;-84
2023/05/17 12:36:06;;;;;;;6.40;0.98;;;15.00;91.50;;;;;;5048575;28;20041;-84
2023/05/17 12:38:34;;;;;;;8.95;1.38;;;15.00;91.70;;;;;;5065258;28;20083;-84
2023/05/17 12:41:01;;;;;;;6.85;1.02;;;14.90;91.30;;;;;;5048017;28;20049;-84
2023/05/17 12:43:28;;;;;;;7.28;1.15;;;14.80;91.50;;;;;;5048487;28;20127;-84
2023/05/17 12:46:21;;;;;;;6.32;0.80;;;14.60;91.60;;;;;;5047478;28;20044;-82
2023/05/17 12:48:50;;;;;;;9.23;1.08;;;14.60;91.70;;;;;;5045532;28;20088;-82
2023/05/17 12:51:18;;;;;;;8.10;1.10;;;14.60;91.70;;;;;;5048538;28;20045;-83
2023/05/17 12:53:52;;;;;;;4.45;0.60;;;14.60;91.60;;;;;;5048241;28;20052;-82
2023/05/17 12:56:27;;;;;;;4.68;0.98;;;14.40;91.40;;;;;;5048479;28;20048;-83